Time;durP1;ratioP1;P1;durP2;ratioP2;P2;SDS_P1;SDS_P2;PMS_P1;PMS_P2;Temp;Humidity;BMP_temperature;BMP_pressure;BME280_temperature;BME280_humidity;BME280_pressure;Samples;Min_cycle;Max_cycle;Signal;HPM_P1;HPM_P2
2023/10/22 00:01:21;;;;;;;4.30;0.85;;;13.50;99.90;;;;;;5076705;28;20156;-76
2023/10/22 00:03:46;;;;;;;2.38;1.10;;;13.50;99.90;;;;;;5078333;28;20488;-77
2023/10/22 00:06:12;;;;;;;3.38;1.10;;;13.40;99.90;;;;;;5076987;28;20040;-77
2023/10/22 00:08:37;;;;;;;5.10;1.85;;;13.50;99.90;;;;;;5061063;28;20062;-76
2023/10/22 00:11:03;;;;;;;3.97;1.20;;;13.50;99.90;;;;;;5076727;28;20036;-76
2023/10/22 00:13:30;;;;;;;3.65;1.00;;;13.40;99.90;;;;;;5092591;28;20036;-76
2023/10/22 00:15:56;;;;;;;6.53;1.20;;;13.30;99.90;;;;;;5110604;28;20366;-76
2023/10/22 00:18:22;;;;;;;2.45;0.80;;;13.50;99.90;;;;;;5077939;28;20044;-76
2023/10/22 00:20:47;;;;;;;3.08;0.88;;;13.40;99.90;;;;;;5094990;28;20046;-76
2023/10/22 00:23:13;;;;;;;5.82;1.15;;;13.40;99.90;;;;;;5071922;28;20118;-76
2023/10/22 00:25:38;;;;;;;4.68;1.10;;;13.30;99.90;;;;;;5094177;28;20032;-76
2023/10/22 00:28:04;;;;;;;4.68;1.30;;;13.40;99.90;;;;;;5059372;28;20079;-76
2023/10/22 00:30:30;;;;;;;3.65;1.25;;;13.40;99.90;;;;;;5110592;28;20039;-76
2023/10/22 00:32:56;;;;;;;3.70;0.95;;;13.40;99.90;;;;;;5076845;28;20097;-76
2023/10/22 00:35:22;;;;;;;2.03;0.73;;;13.40;99.90;;;;;;5061049;28;20408;-76
2023/10/22 00:37:48;;;;;;;5.13;1.38;;;13.40;99.90;;;;;;5041139;28;20036;-76
2023/10/22 00:40:17;;;;;;;3.97;1.08;;;13.30;99.90;;;;;;5040286;28;20040;-76
2023/10/22 00:42:42;;;;;;;6.07;1.10;;;13.40;99.90;;;;;;5074454;28;20039;-76
2023/10/22 00:45:08;;;;;;;5.72;1.23;;;13.30;99.90;;;;;;5091555;28;20028;-77
2023/10/22 00:47:35;;;;;;;6.07;0.98;;;13.30;99.90;;;;;;5075614;28;20036;-76
2023/10/22 00:50:02;;;;;;;10.40;1.35;;;13.30;99.90;;;;;;5077343;28;20032;-77
2023/10/22 00:52:28;;;;;;;2.78;0.80;;;13.30;99.90;;;;;;5073708;28;20577;-77
2023/10/22 00:54:55;;;;;;;4.40;0.98;;;13.50;99.90;;;;;;5057279;28;20036;-77
2023/10/22 00:57:22;;;;;;;5.22;0.90;;;13.50;99.90;;;;;;5062648;28;20455;-77
2023/10/22 00:59:52;;;;;;;4.80;0.90;;;13.40;99.90;;;;;;5043645;28;20076;-77
2023/10/22 01:02:19;;;;;;;5.55;1.08;;;13.30;99.90;;;;;;5076162;28;20551;-78
2023/10/22 01:04:45;;;;;;;5.38;1.02;;;13.30;99.90;;;;;;5091077;28;20126;-77
2023/10/22 01:07:11;;;;;;;4.13;0.88;;;13.30;99.90;;;;;;5058573;28;20118;-78
2023/10/22 01:09:37;;;;;;;5.70;1.60;;;13.40;99.90;;;;;;5111126;28;20472;-77
2023/10/22 01:12:04;;;;;;;3.00;0.80;;;13.30;99.90;;;;;;5060872;28;20067;-77
2023/10/22 01:14:30;;;;;;;2.75;0.70;;;13.30;99.90;;;;;;5060357;28;20032;-78
2023/10/22 01:16:56;;;;;;;3.60;0.82;;;13.30;99.90;;;;;;5087412;28;20082;-77
2023/10/22 01:19:22;;;;;;;6.35;1.00;;;13.30;99.90;;;;;;5072639;28;20503;-77
2023/10/22 01:21:48;;;;;;;5.25;1.42;;;13.30;99.90;;;;;;5059231;28;20476;-79
2023/10/22 01:24:14;;;;;;;3.05;0.93;;;13.40;99.90;;;;;;5094035;28;20491;-77
2023/10/22 01:26:41;;;;;;;3.05;0.90;;;13.40;99.90;;;;;;5075117;28;20075;-78
2023/10/22 01:29:07;;;;;;;2.83;1.05;;;13.30;99.90;;;;;;5075683;28;20048;-78
2023/10/22 01:31:32;;;;;;;4.50;1.00;;;13.40;99.90;;;;;;5076669;28;20506;-78
2023/10/22 01:33:58;;;;;;;7.72;1.45;;;13.30;99.90;;;;;;5087368;28;20040;-77
2023/10/22 01:36:24;;;;;;;4.55;1.25;;;13.20;99.90;;;;;;5088019;28;20040;-78
2023/10/22 01:38:49;;;;;;;6.78;0.85;;;13.20;99.90;;;;;;5058729;28;20036;-79
2023/10/22 01:41:15;;;;;;;3.97;1.10;;;13.30;99.90;;;;;;5068946;28;20466;-79
2023/10/22 01:43:40;;;;;;;5.82;1.00;;;13.40;99.90;;;;;;5086195;28;20028;-79
2023/10/22 01:46:06;;;;;;;3.83;0.85;;;13.10;99.90;;;;;;5057387;28;20032;-77
2023/10/22 01:48:31;;;;;;;7.35;1.20;;;13.10;99.90;;;;;;5075270;28;20085;-77
2023/10/22 01:50:57;;;;;;;6.20;1.42;;;13.10;99.90;;;;;;5059914;28;20042;-78
2023/10/22 01:53:23;;;;;;;2.42;0.80;;;13.00;99.90;;;;;;5058777;28;20043;-78
2023/10/22 01:55:48;;;;;;;4.90;1.00;;;13.00;99.90;;;;;;5055427;28;20044;-78
2023/10/22 01:58:14;;;;;;;3.72;0.90;;;13.00;99.90;;;;;;5074559;28;20052;-78
2023/10/22 02:00:40;;;;;;;5.40;1.00;;;13.00;99.90;;;;;;5069967;28;20036;-78
2023/10/22 02:03:05;;;;;;;4.82;1.15;;;13.20;99.90;;;;;;5076073;28;20032;-78
2023/10/22 02:05:34;;;;;;;3.85;0.80;;;13.00;99.90;;;;;;5079306;28;20040;-77
2023/10/22 02:08:01;;;;;;;3.00;0.88;;;13.00;99.90;;;;;;5055371;28;20032;-78
2023/10/22 02:10:27;;;;;;;3.72;0.90;;;13.00;99.90;;;;;;5062672;28;20123;-78
2023/10/22 02:12:52;;;;;;;4.72;1.00;;;12.90;99.90;;;;;;5073494;28;20094;-79
2023/10/22 02:15:18;;;;;;;5.80;1.20;;;12.90;99.90;;;;;;5078108;28;20043;-78
2023/10/22 02:17:43;;;;;;;2.75;0.90;;;12.80;99.90;;;;;;5074516;28;20082;-78
2023/10/22 02:20:10;;;;;;;4.15;1.05;;;13.00;99.90;;;;;;5074833;28;20032;-78
2023/10/22 02:22:37;;;;;;;3.67;0.90;;;12.90;99.90;;;;;;5059085;28;20039;-78
2023/10/22 02:25:04;;;;;;;4.60;0.93;;;12.90;99.90;;;;;;5096860;28;20032;-80
2023/10/22 02:27:30;;;;;;;2.45;0.98;;;12.90;99.90;;;;;;5074125;28;20078;-79
2023/10/22 02:29:56;;;;;;;4.55;2.20;;;13.00;99.90;;;;;;5056993;28;20047;-78
2023/10/22 02:32:22;;;;;;;4.38;1.10;;;12.80;99.90;;;;;;5074476;28;20032;-78
2023/10/22 02:34:47;;;;;;;5.05;1.10;;;12.90;99.90;;;;;;5075469;28;20109;-78
2023/10/22 02:37:13;;;;;;;4.32;1.20;;;12.70;99.90;;;;;;5074647;28;20037;-78
2023/10/22 02:39:38;;;;;;;5.20;1.45;;;12.80;99.90;;;;;;5071999;28;20051;-78
2023/10/22 02:42:05;;;;;;;4.55;1.52;;;12.80;99.90;;;;;;5074600;28;20036;-78
2023/10/22 02:44:30;;;;;;;2.45;0.93;;;12.80;99.90;;;;;;5109293;28;20081;-78
2023/10/22 02:46:58;;;;;;;2.15;1.05;;;12.70;99.90;;;;;;5058063;28;20040;-78
2023/10/22 02:49:24;;;;;;;5.65;1.02;;;12.70;99.90;;;;;;5109402;28;20442;-78
2023/10/22 02:51:50;;;;;;;5.07;1.25;;;12.70;99.90;;;;;;5108152;28;20036;-79
2023/10/22 02:54:16;;;;;;;4.13;1.05;;;12.80;99.90;;;;;;5092297;28;20032;-79
2023/10/22 02:56:42;;;;;;;1.92;0.80;;;12.70;99.90;;;;;;5059988;28;20412;-79
2023/10/22 02:59:08;;;;;;;1.48;0.77;;;12.60;99.90;;;;;;5056679;28;20458;-78
2023/10/22 03:01:34;;;;;;;2.30;0.80;;;12.70;99.90;;;;;;5074537;28;20039;-78
2023/10/22 03:04:00;;;;;;;4.55;1.10;;;12.70;99.90;;;;;;5072854;28;20039;-78
2023/10/22 03:06:25;;;;;;;4.18;1.13;;;12.60;99.90;;;;;;5091393;28;20043;-78
2023/10/22 03:08:51;;;;;;;4.22;0.90;;;12.60;99.90;;;;;;5073126;28;20092;-78
2023/10/22 03:11:18;;;;;;;5.47;1.23;;;12.70;99.90;;;;;;5074968;28;20040;-78
2023/10/22 03:13:45;;;;;;;3.28;1.50;;;12.70;99.90;;;;;;5072496;28;20044;-78
2023/10/22 03:16:14;;;;;;;2.03;0.75;;;12.60;99.90;;;;;;5057803;28;20248;-78
2023/10/22 03:18:41;;;;;;;3.53;1.25;;;12.60;99.90;;;;;;5057737;28;20101;-77
2023/10/22 03:21:11;;;;;;;2.00;0.88;;;12.60;99.90;;;;;;5080185;28;20043;-78
2023/10/22 03:23:40;;;;;;;2.92;0.90;;;12.60;99.90;;;;;;5090877;28;20036;-80
2023/10/22 03:26:11;;;;;;;2.83;0.77;;;12.60;99.90;;;;;;5102208;28;20400;-78
2023/10/22 03:28:37;;;;;;;3.90;1.00;;;12.70;99.90;;;;;;5074082;28;20040;-78
2023/10/22 03:31:04;;;;;;;2.70;0.90;;;12.60;99.90;;;;;;5058982;28;20046;-77
2023/10/22 03:33:31;;;;;;;3.20;0.90;;;12.60;99.90;;;;;;5091792;28;20086;-77
2023/10/22 03:35:58;;;;;;;4.50;0.98;;;12.70;99.90;;;;;;5079456;28;20070;-77
2023/10/22 03:38:24;;;;;;;3.65;0.85;;;12.60;99.90;;;;;;5074233;28;20040;-80
2023/10/22 03:40:59;;;;;;;4.10;1.00;;;12.70;99.90;;;;;;5056585;28;20040;-77
2023/10/22 03:43:29;;;;;;;3.78;0.70;;;12.60;99.90;;;;;;5069512;28;20066;-78
2023/10/22 03:45:55;;;;;;;3.72;1.10;;;12.60;99.90;;;;;;5104575;28;20135;-76
2023/10/22 03:48:22;;;;;;;3.97;0.90;;;12.60;99.90;;;;;;5072874;28;20044;-77
2023/10/22 03:50:47;;;;;;;3.38;0.85;;;12.60;99.90;;;;;;5083007;28;20157;-77
2023/10/22 03:53:13;;;;;;;4.88;1.05;;;12.60;99.90;;;;;;5075036;28;20123;-76
2023/10/22 03:55:39;;;;;;;4.05;1.00;;;12.50;99.90;;;;;;5070075;28;20493;-77
2023/10/22 03:58:04;;;;;;;7.63;1.30;;;12.60;99.90;;;;;;5073160;28;20180;-77
2023/10/22 04:00:30;;;;;;;2.42;1.05;;;12.60;99.90;;;;;;5073325;28;20396;-77
2023/10/22 04:02:56;;;;;;;5.18;0.90;;;12.60;99.90;;;;;;5077565;28;20067;-78
2023/10/22 04:05:22;;;;;;;3.60;1.00;;;12.60;99.90;;;;;;5054436;28;20039;-78
2023/10/22 04:07:49;;;;;;;7.82;1.17;;;12.70;99.90;;;;;;5057009;28;20040;-78
2023/10/22 04:10:15;;;;;;;1.88;0.88;;;12.60;99.90;;;;;;5057483;28;20518;-78
2023/10/22 04:12:40;;;;;;;2.72;1.00;;;12.60;99.90;;;;;;5073804;28;20036;-78
2023/10/22 04:15:07;;;;;;;3.08;1.00;;;12.60;99.90;;;;;;5058155;28;20134;-78
2023/10/22 04:17:33;;;;;;;3.78;1.00;;;12.60;99.90;;;;;;5087178;28;20124;-79
2023/10/22 04:19:58;;;;;;;3.70;1.00;;;12.60;99.90;;;;;;5056504;28;20067;-78
2023/10/22 04:22:24;;;;;;;1.85;0.88;;;12.70;99.90;;;;;;5058800;28;20036;-78
2023/10/22 04:24:49;;;;;;;1.60;0.70;;;12.70;99.90;;;;;;5061569;28;20035;-79
2023/10/22 04:27:15;;;;;;;4.32;1.15;;;12.60;99.90;;;;;;5075907;28;20035;-78
2023/10/22 04:29:43;;;;;;;2.03;1.13;;;12.70;99.90;;;;;;5069356;28;20036;-78
2023/10/22 04:32:08;;;;;;;1.83;0.90;;;12.60;99.90;;;;;;5074693;28;20032;-78
2023/10/22 04:34:35;;;;;;;3.22;0.90;;;12.60;99.90;;;;;;5078115;28;20377;-77
2023/10/22 04:37:01;;;;;;;4.43;0.98;;;12.70;99.90;;;;;;5094908;28;20373;-77
2023/10/22 04:39:27;;;;;;;1.88;0.75;;;12.60;99.90;;;;;;5102342;28;20045;-77
2023/10/22 04:41:52;;;;;;;2.70;0.90;;;12.60;99.90;;;;;;5074171;28;20036;-78
2023/10/22 04:44:19;;;;;;;3.70;1.00;;;12.60;99.90;;;;;;5083549;28;20120;-78
2023/10/22 04:46:44;;;;;;;1.60;0.70;;;12.60;99.90;;;;;;5067094;28;20085;-77
2023/10/22 04:49:10;;;;;;;5.05;0.95;;;12.60;99.90;;;;;;5061936;28;20047;-77
2023/10/22 04:51:37;;;;;;;1.08;0.70;;;12.60;99.90;;;;;;5094256;28;20036;-77
2023/10/22 04:54:03;;;;;;;2.60;0.80;;;12.60;99.90;;;;;;5076269;28;20046;-78
2023/10/22 04:56:28;;;;;;;1.83;0.90;;;12.60;99.90;;;;;;5075906;28;20415;-77
2023/10/22 04:58:54;;;;;;;1.27;0.80;;;12.60;99.90;;;;;;5060693;28;20127;-78
2023/10/22 05:01:20;;;;;;;2.00;0.88;;;12.60;99.90;;;;;;5058026;28;20052;-78
2023/10/22 05:03:46;;;;;;;1.63;0.90;;;12.60;99.90;;;;;;5110260;28;20046;-78
2023/10/22 05:06:11;;;;;;;2.88;1.00;;;12.70;99.90;;;;;;5059015;28;20089;-77
2023/10/22 05:08:40;;;;;;;3.13;1.02;;;12.60;99.90;;;;;;5075669;28;20070;-77
2023/10/22 05:11:06;;;;;;;1.77;0.98;;;12.60;99.90;;;;;;5057852;28;20044;-77
2023/10/22 05:13:32;;;;;;;2.40;1.20;;;12.60;99.90;;;;;;5077140;28;20040;-77
2023/10/22 05:15:58;;;;;;;2.10;1.10;;;12.60;99.90;;;;;;5058867;28;20043;-77
2023/10/22 05:18:26;;;;;;;2.28;1.00;;;12.60;99.90;;;;;;5059339;28;20036;-77
2023/10/22 05:20:52;;;;;;;2.92;1.10;;;12.60;99.90;;;;;;5110188;28;20055;-78
2023/10/22 05:23:18;;;;;;;3.65;1.30;;;12.70;99.90;;;;;;5058085;28;20032;-77
2023/10/22 05:25:43;;;;;;;2.72;1.15;;;12.60;99.90;;;;;;5056905;28;20036;-77
2023/10/22 05:28:09;;;;;;;3.20;1.30;;;12.60;99.90;;;;;;5059304;28;20036;-77
2023/10/22 05:30:34;;;;;;;3.22;1.35;;;12.70;99.90;;;;;;5074735;28;20542;-77
2023/10/22 05:33:01;;;;;;;3.00;1.40;;;12.80;99.90;;;;;;5058914;28;20408;-77
2023/10/22 05:35:27;;;;;;;2.70;1.38;;;12.80;99.90;;;;;;5082635;28;20050;-77
2023/10/22 05:37:53;;;;;;;2.55;1.42;;;12.80;99.90;;;;;;5075466;28;20566;-77
2023/10/22 05:40:18;;;;;;;2.97;1.33;;;12.80;99.90;;;;;;5075517;28;20032;-77
2023/10/22 05:42:44;;;;;;;4.28;1.48;;;12.80;99.90;;;;;;5074147;28;20036;-77
2023/10/22 05:45:10;;;;;;;1.75;1.35;;;12.70;99.90;;;;;;5075552;28;20085;-77
2023/10/22 05:47:36;;;;;;;2.28;1.30;;;12.80;99.90;;;;;;5064232;28;20040;-77
2023/10/22 05:50:02;;;;;;;2.45;1.38;;;12.80;99.90;;;;;;5108162;28;20039;-77
2023/10/22 05:52:28;;;;;;;2.50;1.70;;;12.80;99.90;;;;;;5107283;28;20038;-77
2023/10/22 05:54:54;;;;;;;2.20;1.35;;;12.70;99.90;;;;;;5077955;28;20090;-77
2023/10/22 05:57:22;;;;;;;2.17;1.45;;;12.80;99.90;;;;;;5058250;28;20086;-77
2023/10/22 05:59:51;;;;;;;2.85;1.15;;;12.90;99.90;;;;;;5075415;28;20044;-77
2023/10/22 06:02:16;;;;;;;2.40;0.90;;;12.90;99.90;;;;;;5057795;28;20032;-77
2023/10/22 06:04:42;;;;;;;1.90;0.80;;;12.90;99.90;;;;;;5092997;28;20093;-77
2023/10/22 06:07:08;;;;;;;4.32;0.70;;;12.90;99.90;;;;;;5073252;28;20453;-77
2023/10/22 06:09:36;;;;;;;1.00;0.63;;;12.90;99.90;;;;;;5079996;28;20036;-76
2023/10/22 06:12:02;;;;;;;2.35;0.70;;;12.80;99.90;;;;;;5075107;28;20036;-76
2023/10/22 06:14:28;;;;;;;2.42;0.70;;;12.70;99.90;;;;;;5060918;28;20043;-76
2023/10/22 06:16:54;;;;;;;1.33;0.50;;;12.70;99.90;;;;;;5059256;28;20040;-76
2023/10/22 06:19:19;;;;;;;1.48;0.57;;;12.60;99.90;;;;;;5071891;28;20043;-76
2023/10/22 06:21:45;;;;;;;2.65;0.60;;;12.60;99.90;;;;;;5075724;28;20112;-76
2023/10/22 06:24:10;;;;;;;2.70;0.75;;;12.60;99.90;;;;;;5055973;28;20477;-76
2023/10/22 06:26:36;;;;;;;1.48;0.50;;;12.50;99.90;;;;;;5051872;28;20058;-75
2023/10/22 06:29:01;;;;;;;1.55;0.65;;;12.50;99.90;;;;;;5067633;28;20034;-75
2023/10/22 06:31:27;;;;;;;3.70;1.45;;;12.50;99.90;;;;;;5067306;28;20073;-76
2023/10/22 06:33:52;;;;;;;3.88;0.88;;;12.40;99.90;;;;;;5051308;28;20069;-76
2023/10/22 06:36:19;;;;;;;4.53;0.93;;;12.30;99.90;;;;;;5069964;28;20044;-75
2023/10/22 06:38:47;;;;;;;1.75;0.60;;;12.30;99.90;;;;;;5056399;28;20040;-75
2023/10/22 06:41:17;;;;;;;4.38;1.00;;;12.20;99.90;;;;;;5071918;28;20498;-75
2023/10/22 06:43:44;;;;;;;6.65;1.05;;;12.20;99.90;;;;;;5052229;28;20310;-75
2023/10/22 06:46:10;;;;;;;3.60;0.93;;;12.10;99.90;;;;;;5046919;28;20032;-75
2023/10/22 06:48:36;;;;;;;5.13;1.10;;;12.00;99.90;;;;;;5104385;28;20040;-75
2023/10/22 06:51:02;;;;;;;4.65;1.10;;;12.00;99.90;;;;;;5058476;28;20034;-75
2023/10/22 06:53:30;;;;;;;7.07;1.10;;;12.00;99.90;;;;;;5072437;28;20051;-75
2023/10/22 06:55:56;;;;;;;6.55;1.13;;;11.90;99.90;;;;;;5069962;28;20044;-75
2023/10/22 06:58:21;;;;;;;6.03;1.73;;;12.00;99.90;;;;;;5073388;28;20453;-75
2023/10/22 07:00:47;;;;;;;6.03;1.23;;;12.10;99.90;;;;;;5071967;28;20035;-76
2023/10/22 07:03:12;;;;;;;4.05;1.08;;;12.10;99.90;;;;;;5066680;28;20470;-75
2023/10/22 07:05:38;;;;;;;5.40;1.10;;;12.20;99.90;;;;;;5049550;28;20123;-76
2023/10/22 07:08:04;;;;;;;5.93;1.20;;;12.20;99.90;;;;;;5053147;28;20032;-76
2023/10/22 07:10:29;;;;;;;6.45;1.30;;;12.20;99.90;;;;;;5091548;28;20032;-76
2023/10/22 07:12:57;;;;;;;3.53;1.15;;;12.20;99.90;;;;;;5055625;28;20114;-75
2023/10/22 07:15:24;;;;;;;8.35;1.40;;;12.20;99.90;;;;;;5108744;28;20500;-76
2023/10/22 07:17:51;;;;;;;5.72;1.45;;;12.20;99.90;;;;;;5106548;28;20044;-76
2023/10/22 07:20:17;;;;;;;5.35;1.52;;;12.30;99.90;;;;;;5066341;28;20036;-76
2023/10/22 07:22:42;;;;;;;4.07;1.08;;;12.30;99.90;;;;;;5057306;28;20032;-76
2023/10/22 07:25:08;;;;;;;5.90;1.27;;;12.20;99.90;;;;;;5058112;28;20047;-76
2023/10/22 07:27:33;;;;;;;3.63;1.10;;;12.20;99.90;;;;;;5056292;28;20576;-75
2023/10/22 07:29:59;;;;;;;5.43;1.27;;;12.30;99.90;;;;;;5062347;28;20121;-78
2023/10/22 07:32:24;;;;;;;4.57;1.20;;;12.20;99.90;;;;;;5053517;28;20174;-82
2023/10/22 07:34:50;;;;;;;2.80;1.30;;;12.20;99.90;;;;;;5057576;28;20461;-82
2023/10/22 07:37:16;;;;;;;4.72;1.30;;;12.20;99.90;;;;;;5096492;28;20118;-81
2023/10/22 07:39:41;;;;;;;3.50;1.42;;;12.20;99.90;;;;;;5056497;28;20115;-81
2023/10/22 07:42:07;;;;;;;2.05;1.25;;;12.10;99.90;;;;;;5055778;28;20043;-81
2023/10/22 07:44:32;;;;;;;4.43;1.38;;;12.10;99.90;;;;;;5072635;28;20032;-82
2023/10/22 07:46:58;;;;;;;4.65;1.55;;;12.10;99.90;;;;;;5072817;28;20044;-82
2023/10/22 07:49:24;;;;;;;6.35;1.85;;;12.10;99.90;;;;;;5083013;28;20131;-81
2023/10/22 07:51:49;;;;;;;4.97;1.88;;;12.20;99.90;;;;;;5101795;28;20156;-81
2023/10/22 07:54:15;;;;;;;6.75;1.73;;;12.20;99.90;;;;;;5060072;28;20043;-81
2023/10/22 07:56:41;;;;;;;4.85;1.88;;;12.30;99.90;;;;;;5066916;28;20056;-81
2023/10/22 07:59:06;;;;;;;6.10;1.70;;;12.20;99.90;;;;;;5086365;28;20036;-82
2023/10/22 08:01:32;;;;;;;3.72;1.70;;;12.20;99.90;;;;;;5079211;28;20074;-81
2023/10/22 08:03:57;;;;;;;7.53;2.17;;;12.30;99.90;;;;;;5095057;28;20427;-82
2023/10/22 08:06:23;;;;;;;6.72;1.90;;;12.30;99.90;;;;;;5077742;28;20040;-82
2023/10/22 08:08:48;;;;;;;8.23;2.20;;;12.30;99.90;;;;;;5060775;28;20040;-81
2023/10/22 08:11:14;;;;;;;8.32;2.33;;;12.30;99.90;;;;;;5085723;28;20449;-82
2023/10/22 08:13:40;;;;;;;8.57;2.30;;;12.30;99.90;;;;;;5078022;28;20105;-81
2023/10/22 08:16:06;;;;;;;9.05;2.42;;;12.40;99.90;;;;;;5057967;28;20044;-81
2023/10/22 08:18:32;;;;;;;9.30;2.10;;;12.40;99.90;;;;;;5076466;28;20043;-81
2023/10/22 08:21:03;;;;;;;10.38;2.30;;;12.50;99.90;;;;;;5079080;28;20032;-81
2023/10/22 08:23:29;;;;;;;7.60;2.20;;;12.40;99.90;;;;;;5109762;28;20392;-81
2023/10/22 08:25:55;;;;;;;4.95;1.85;;;12.50;99.90;;;;;;5094541;28;20044;-82
2023/10/22 08:28:20;;;;;;;8.02;1.88;;;12.50;99.90;;;;;;5060936;28;20063;-82
2023/10/22 08:30:47;;;;;;;5.18;1.73;;;12.60;99.90;;;;;;5060609;28;20039;-82
2023/10/22 08:33:13;;;;;;;6.80;1.60;;;12.60;99.90;;;;;;5085791;28;20040;-82
2023/10/22 08:35:38;;;;;;;4.30;1.52;;;12.60;99.90;;;;;;5060591;28;20503;-82
2023/10/22 08:38:04;;;;;;;4.43;1.45;;;12.60;99.90;;;;;;5060495;28;20121;-82
2023/10/22 08:40:30;;;;;;;7.47;1.52;;;12.60;99.90;;;;;;5061163;28;20043;-81
2023/10/22 08:42:57;;;;;;;7.43;1.70;;;12.60;99.90;;;;;;5063203;28;20507;-81
2023/10/22 08:45:23;;;;;;;9.05;1.40;;;12.60;99.90;;;;;;5093463;28;20075;-82
2023/10/22 08:47:48;;;;;;;3.65;1.08;;;12.60;99.90;;;;;;5077522;28;20078;-81
2023/10/22 08:50:16;;;;;;;5.50;1.50;;;12.60;99.90;;;;;;5076869;28;20139;-81
2023/10/22 08:52:41;;;;;;;7.47;1.40;;;12.60;99.90;;;;;;5081089;28;20485;-81
2023/10/22 08:55:07;;;;;;;8.95;2.20;;;12.60;99.90;;;;;;5085546;28;20032;-81
2023/10/22 08:57:35;;;;;;;5.85;1.40;;;12.60;99.90;;;;;;5072895;28;20091;-81
2023/10/22 09:00:01;;;;;;;5.75;1.48;;;12.70;99.90;;;;;;5073489;28;20374;-81
2023/10/22 09:02:27;;;;;;;5.70;1.35;;;12.70;99.90;;;;;;5073748;28;20094;-81
2023/10/22 09:04:56;;;;;;;6.15;1.30;;;12.70;99.90;;;;;;5054851;28;20032;-81
2023/10/22 09:07:50;;;;;;;4.30;1.40;;;12.70;99.90;;;;;;5069636;28;20036;-81
2023/10/22 09:10:24;;;;;;;6.45;1.20;;;12.90;99.90;;;;;;5073282;28;20036;-81
2023/10/22 09:12:50;;;;;;;5.18;1.33;;;12.90;99.90;;;;;;5056455;28;20146;-82
2023/10/22 09:15:15;;;;;;;4.05;1.35;;;13.00;99.90;;;;;;5071147;28;20525;-81
2023/10/22 09:17:42;;;;;;;4.57;1.40;;;13.10;99.90;;;;;;5071082;28;20040;-81
2023/10/22 09:20:29;;;;;;;6.85;1.48;;;13.10;99.90;;;;;;5070833;28;20033;-81
2023/10/22 09:23:11;;;;;;;4.47;1.13;;;13.10;99.90;;;;;;5054854;28;20032;-82
2023/10/22 09:25:37;;;;;;;3.83;0.90;;;13.20;99.90;;;;;;5045767;28;20075;-81
2023/10/22 09:28:24;;;;;;;3.17;1.25;;;13.40;99.90;;;;;;5049748;28;20072;-81
2023/10/22 09:31:03;;;;;;;3.40;1.02;;;13.40;99.90;;;;;;5066615;28;20044;-81
2023/10/22 09:33:41;;;;;;;3.63;1.27;;;13.50;99.90;;;;;;5049741;28;20115;-81
2023/10/22 09:36:10;;;;;;;5.20;1.05;;;13.60;99.90;;;;;;5072716;28;20079;-81
2023/10/22 09:38:46;;;;;;;7.30;1.20;;;13.70;99.90;;;;;;5063510;28;20441;-81
2023/10/22 09:41:18;;;;;;;3.38;1.00;;;13.50;99.90;;;;;;5064969;28;20093;-82
2023/10/22 09:43:44;;;;;;;4.43;1.10;;;13.60;99.90;;;;;;5055084;28;20037;-81
2023/10/22 09:46:10;;;;;;;4.72;1.10;;;13.70;99.90;;;;;;5050314;28;20401;-82
2023/10/22 09:48:36;;;;;;;1.63;0.73;;;13.60;99.90;;;;;;5070087;28;20125;-81
2023/10/22 09:51:08;;;;;;;5.15;1.42;;;13.80;99.90;;;;;;5053572;28;20036;-81
2023/10/22 09:53:40;;;;;;;2.10;0.73;;;13.70;99.90;;;;;;5053214;28;20370;-81
2023/10/22 09:56:07;;;;;;;4.45;1.00;;;13.70;99.90;;;;;;5036276;28;20056;-82
2023/10/22 09:58:39;;;;;;;3.30;1.10;;;13.50;99.90;;;;;;5091182;28;20044;-81
2023/10/22 10:01:06;;;;;;;5.53;1.02;;;13.40;99.90;;;;;;5068465;28;20405;-81
2023/10/22 10:03:32;;;;;;;7.50;1.52;;;13.40;99.90;;;;;;5056862;28;20047;-81
2023/10/22 10:05:58;;;;;;;2.63;0.82;;;13.50;99.90;;;;;;5076070;28;20035;-82
2023/10/22 10:08:24;;;;;;;5.05;1.80;;;13.50;99.90;;;;;;5059402;28;20040;-81
2023/10/22 10:10:50;;;;;;;4.25;1.00;;;13.40;99.90;;;;;;5058704;28;20055;-81
2023/10/22 10:13:16;;;;;;;5.28;1.10;;;13.30;99.90;;;;;;5059331;28;20032;-82
2023/10/22 10:15:43;;;;;;;4.45;0.95;;;13.30;99.90;;;;;;5074224;28;20438;-82
2023/10/22 10:18:09;;;;;;;1.05;0.60;;;13.30;99.90;;;;;;5083311;28;20040;-82
2023/10/22 10:20:39;;;;;;;3.28;0.93;;;13.30;99.90;;;;;;5052217;28;20050;-82
2023/10/22 10:23:07;;;;;;;3.83;1.10;;;13.30;99.90;;;;;;5050342;28;20028;-82
2023/10/22 10:25:34;;;;;;;6.45;1.13;;;13.20;99.90;;;;;;5064364;28;20032;-82
2023/10/22 10:28:03;;;;;;;5.05;1.20;;;13.10;99.90;;;;;;5059044;28;20044;-82
2023/10/22 10:30:29;;;;;;;3.72;0.80;;;13.00;99.90;;;;;;5051970;28;20096;-81
2023/10/22 10:32:55;;;;;;;1.95;0.95;;;12.90;99.90;;;;;;5092616;28;20044;-81
2023/10/22 10:35:21;;;;;;;3.13;0.93;;;12.90;99.90;;;;;;5089249;28;20396;-81
2023/10/22 10:38:15;;;;;;;4.57;0.90;;;13.00;99.90;;;;;;5050186;28;20039;-82
2023/10/22 10:40:44;;;;;;;2.97;0.73;;;13.00;99.90;;;;;;5061421;28;20046;-81
2023/10/22 10:43:10;;;;;;;4.47;0.70;;;13.10;99.90;;;;;;5065596;28;20124;-81
2023/10/22 10:45:41;;;;;;;2.28;0.70;;;13.10;99.90;;;;;;5075123;28;20047;-82
2023/10/22 10:48:26;;;;;;;4.80;0.80;;;13.10;99.90;;;;;;5072171;28;20555;-81
2023/10/22 10:51:17;;;;;;;2.25;0.80;;;13.10;99.90;;;;;;5057848;28;20092;-81
2023/10/22 10:54:00;;;;;;;2.65;0.65;;;13.20;99.90;;;;;;5052712;28;20123;-82
2023/10/22 10:56:55;;;;;;;2.65;0.70;;;13.30;99.90;;;;;;5074741;28;20051;-81
2023/10/22 10:59:35;;;;;;;3.92;0.75;;;13.40;99.90;;;;;;5052804;28;20488;-81
2023/10/22 11:02:06;;;;;;;3.13;0.70;;;13.50;99.90;;;;;;5054479;28;20036;-81
2023/10/22 11:04:33;;;;;;;2.97;0.70;;;13.60;99.90;;;;;;5055763;28;20047;-81
2023/10/22 11:06:59;;;;;;;3.85;0.70;;;13.50;99.90;;;;;;5070114;28;20024;-81
2023/10/22 11:09:26;;;;;;;1.77;0.60;;;13.70;99.90;;;;;;5072765;28;20059;-82
2023/10/22 11:11:56;;;;;;;1.73;0.60;;;13.70;99.90;;;;;;5089703;28;20053;-81
2023/10/22 11:14:21;;;;;;;1.02;0.57;;;13.80;99.90;;;;;;5072718;28;20119;-81
2023/10/22 11:16:55;;;;;;;2.78;0.60;;;13.70;99.90;;;;;;5071345;28;20110;-81
2023/10/22 11:19:22;;;;;;;5.00;1.05;;;13.70;99.90;;;;;;5054741;28;20435;-81
2023/10/22 11:21:48;;;;;;;2.38;0.73;;;13.60;99.90;;;;;;5070996;28;20037;-81
2023/10/22 11:24:14;;;;;;;2.83;0.73;;;13.50;99.90;;;;;;5085549;28;20068;-82
2023/10/22 11:26:40;;;;;;;2.38;0.60;;;13.40;99.90;;;;;;5053146;28;20060;-81
2023/10/22 11:29:06;;;;;;;2.55;0.70;;;13.20;99.90;;;;;;5072836;28;20045;-81
2023/10/22 11:31:31;;;;;;;2.33;0.75;;;13.20;99.90;;;;;;5076965;28;20040;-81
2023/10/22 11:34:12;;;;;;;2.50;0.75;;;13.20;99.90;;;;;;5058692;28;20040;-81
2023/10/22 11:36:38;;;;;;;3.38;0.80;;;13.20;99.90;;;;;;5075542;28;20043;-81
2023/10/22 11:39:31;;;;;;;2.75;0.68;;;13.10;99.90;;;;;;5092180;28;20040;-81
2023/10/22 11:42:00;;;;;;;3.22;0.70;;;13.10;99.90;;;;;;5076991;28;20127;-82
2023/10/22 11:44:36;;;;;;;1.75;0.68;;;13.00;99.90;;;;;;5058039;28;20040;-81
2023/10/22 11:47:21;;;;;;;4.22;0.82;;;13.00;99.90;;;;;;5060319;28;20040;-82
2023/10/22 11:49:48;;;;;;;2.45;0.70;;;13.00;99.90;;;;;;5075936;28;20089;-81
2023/10/22 11:52:39;;;;;;;2.97;0.70;;;13.00;99.90;;;;;;5076047;28;20393;-82
2023/10/22 11:55:05;;;;;;;3.50;0.88;;;12.90;99.90;;;;;;5050015;28;20392;-81
2023/10/22 11:57:32;;;;;;;3.20;0.77;;;12.90;99.90;;;;;;5076142;28;20060;-81
2023/10/22 11:59:58;;;;;;;3.97;0.75;;;12.90;99.90;;;;;;5092438;28;20039;-81
2023/10/22 12:02:23;;;;;;;2.50;0.65;;;12.80;99.90;;;;;;5080869;28;20081;-81
2023/10/22 12:04:49;;;;;;;3.55;0.60;;;12.80;99.90;;;;;;5076365;28;20047;-82
2023/10/22 12:07:15;;;;;;;0.60;0.40;;;12.70;99.90;;;;;;5091515;28;20043;-82
2023/10/22 12:09:41;;;;;;;1.70;0.70;;;12.60;99.90;;;;;;5093142;28;20043;-82
2023/10/22 12:12:07;;;;;;;4.30;0.85;;;12.50;99.90;;;;;;5076137;28;20039;-81
2023/10/22 12:14:32;;;;;;;2.55;0.70;;;12.40;99.90;;;;;;5092561;28;20036;-82
2023/10/22 12:16:58;;;;;;;2.55;0.60;;;12.40;99.90;;;;;;5089271;28;20043;-81
2023/10/22 12:19:24;;;;;;;2.90;0.70;;;12.40;99.90;;;;;;5084201;28;20058;-81
2023/10/22 12:21:50;;;;;;;2.70;0.80;;;12.40;99.90;;;;;;5076119;28;20083;-81
2023/10/22 12:24:15;;;;;;;1.80;0.50;;;12.40;99.90;;;;;;5080921;28;20077;-82
2023/10/22 12:26:41;;;;;;;0.43;0.40;;;12.30;99.90;;;;;;5077910;28;20093;-82
2023/10/22 12:29:07;;;;;;;1.67;0.50;;;12.40;99.90;;;;;;5065458;28;20385;-82
2023/10/22 12:31:32;;;;;;;3.33;0.60;;;12.40;99.90;;;;;;5057695;28;20040;-82
2023/10/22 12:33:58;;;;;;;2.83;0.50;;;12.50;99.90;;;;;;5059923;28;20118;-82
2023/10/22 12:36:24;;;;;;;1.35;0.50;;;12.40;99.90;;;;;;5093725;28;20181;-82
2023/10/22 12:38:52;;;;;;;3.95;0.95;;;12.40;99.90;;;;;;5083241;28;20039;-82
2023/10/22 12:41:18;;;;;;;1.55;0.50;;;12.40;99.90;;;;;;5077160;28;20404;-82
2023/10/22 12:43:44;;;;;;;2.03;0.50;;;12.40;99.90;;;;;;5075639;28;20036;-81
2023/10/22 12:46:09;;;;;;;1.48;0.65;;;12.40;99.90;;;;;;5093370;28;20085;-82
2023/10/22 12:48:35;;;;;;;2.13;0.70;;;12.40;99.90;;;;;;5089499;28;20076;-82